LEAB

Albacete-Los Llanos Airport

Albacete, Spain
TAF LEAB 210800Z 2109/2118 VRB04KT CAVOK BECMG 2112/2114 24010KT
Issued Valid From Valid To
Jul-21 @ 08:00 UTC
(2 hours ago)
Jul-21 @ 09:00 UTC
(60 minutes ago)
Jul-21 @ 18:00 UTC
(in 8 hours)
Jul-21 @ 09:00 to Jul-21 @ 12:00
TAF LEAB 210800Z 2109/2118 VRB04KT CAVOK
Wind Visibility Clouds Conditions
Variable at 4 knots 10,000+ meters
  • No significant clouds
Becoming Jul-21 @ 12:00 to Jul-21 @ 18:00
BECMG 2112/2114 24010KT
Wind Visibility Clouds Conditions
240° at 10 knots 10,000+ meters
  • No significant clouds
TAF LEAB 210800Z 2109/2118 VRB04KT CAVOK BECMG 2112/2114 24010KT
Issued Jul-21 @ 08:00 UTC
(2 hours ago)
Valid From Jul-21 @ 09:00 UTC
(60 minutes ago)
Valid To Jul-21 @ 18:00 UTC
(in 8 hours)
Jul-21 @ 09:00 - Jul-21 @ 12:00
Wind Visibility
Variable at 4 knots 10,000+ meters
Clouds
  • No significant clouds
Conditions
Becoming Jul-21 @ 12:00 - Jul-21 @ 18:00
Wind Visibility
240° at 10 knots 10,000+ meters
Clouds
  • No significant clouds
Conditions